KUOX/UOX METAR and TAF weather

Enter ICAO airport designator
Station Type Date Time Source
KUOX METAR 2019/02/20 17:35 UTC NOAA

KUOX 201735Z AUTO 23006KT 5SM BR OVC004 12/12 A2988 RMK AO2


Station Type Date Time Source
KUOX Decoded METAR 2019/02/20 17:35 UTC NOAA

Oxford, University-Oxford Airport, MS, United States (KUOX) 34-23-04N 089-32-08W
Feb 20, 2019 - 12:35 PM EST / 2019.02.20 1735 UTC
Wind: from the SW (230 degrees) at 7 MPH (6 KT):0
Visibility: 5 mile(s):0
Sky conditions: overcast
Weather: mist
Temperature: 53 F (12 C)
Dew Point: 53 F (12 C)
Relative Humidity: 100%
Pressure (altimeter): 29.88 in. Hg (1011 hPa)
ob: KUOX 201735Z AUTO 23006KT 5SM BR OVC004 12/12 A2988 RMK AO2
cycle: 17

Station Type Date Time Source
KUOX TAF UTC NOAA

Error!


Example: see airport list